createdAt,value
2019-01-28T00:00:03.402Z,98.40
2019-01-28T00:02:50.992Z,98.50
2019-01-28T00:05:39.080Z,98.50
2019-01-28T00:08:26.955Z,98.50
2019-01-28T00:11:14.910Z,98.60
2019-01-28T00:14:03.055Z,98.20
2019-01-28T00:16:50.733Z,98.40
2019-01-28T00:19:39.036Z,99.20
2019-01-28T00:22:26.908Z,99.90
2019-01-28T00:25:14.539Z,99.90
2019-01-28T00:28:02.578Z,99.90
2019-01-28T00:30:50.553Z,99.90
2019-01-28T00:33:38.697Z,99.50
2019-01-28T00:36:26.795Z,99.90
2019-01-28T00:39:14.221Z,99.90
2019-01-28T00:42:02.230Z,99.90
2019-01-28T00:44:50.222Z,99.90
2019-01-28T00:47:38.257Z,99.90
2019-01-28T00:50:26.258Z,99.70
2019-01-28T00:53:14.196Z,99.20
2019-01-28T00:56:02.472Z,99.30
2019-01-28T00:58:50.615Z,98.90
2019-01-28T01:01:39.002Z,98.70
2019-01-28T01:04:27.204Z,98.90
2019-01-28T01:07:16.735Z,99.00
2019-01-28T01:10:06.827Z,98.90
2019-01-28T01:12:54.660Z,98.90
2019-01-28T01:15:42.178Z,98.80
2019-01-28T01:18:29.868Z,99.10
2019-01-28T01:21:17.882Z,99.10
2019-01-28T01:24:05.761Z,99.50
2019-01-28T01:26:54.042Z,99.60
2019-01-28T01:29:41.676Z,99.80
2019-01-28T01:32:29.603Z,99.90
2019-01-28T01:35:17.191Z,99.90
2019-01-28T01:38:05.071Z,99.90
2019-01-28T01:40:52.848Z,99.90
2019-01-28T01:43:40.393Z,99.90
2019-01-28T01:46:28.458Z,99.90
2019-01-28T01:49:16.071Z,99.90
2019-01-28T01:52:04.305Z,99.90
2019-01-28T01:54:52.362Z,99.90
2019-01-28T01:57:39.855Z,99.90
2019-01-28T02:00:27.810Z,99.90
2019-01-28T02:03:15.670Z,99.70
2019-01-28T02:06:04.046Z,98.90
2019-01-28T02:08:52.068Z,98.90
2019-01-28T02:11:39.832Z,98.90
2019-01-28T02:14:27.753Z,98.60
2019-01-28T02:17:16.201Z,98.50
2019-01-28T02:20:04.619Z,98.50
2019-01-28T02:22:52.531Z,98.20
2019-01-28T02:25:40.620Z,98.10
2019-01-28T02:28:28.605Z,98.20
2019-01-28T02:31:16.712Z,97.70
2019-01-28T02:34:04.110Z,97.70
2019-01-28T02:36:51.735Z,97.80
2019-01-28T02:39:39.222Z,97.40
2019-01-28T02:42:27.168Z,97.70
2019-01-28T02:45:15.804Z,97.70
2019-01-28T02:48:03.901Z,97.30
2019-01-28T02:50:52.460Z,97.30
2019-01-28T02:53:40.147Z,97.20
2019-01-28T02:56:28.149Z,97.30
2019-01-28T02:59:16.146Z,97.20
2019-01-28T03:02:05.250Z,97.20
2019-01-28T03:04:52.971Z,97.00
2019-01-28T03:07:40.824Z,96.90
2019-01-28T03:10:30.416Z,97.00
2019-01-28T03:13:18.281Z,97.00
2019-01-28T03:16:06.293Z,96.90
2019-01-28T03:18:54.354Z,96.90
2019-01-28T03:21:42.571Z,96.70
2019-01-28T03:27:03.159Z,96.60
2019-01-28T03:29:51.234Z,96.70
2019-01-28T03:32:39.454Z,96.60
2019-01-28T03:35:27.214Z,96.40
2019-01-28T03:38:15.496Z,96.30
2019-01-28T03:41:03.948Z,96.10
2019-01-28T03:43:51.775Z,95.90
2019-01-28T03:46:39.591Z,95.90
2019-01-28T03:49:28.069Z,95.60
2019-01-28T03:52:17.548Z,95.20
2019-01-28T03:55:06.362Z,95.20
2019-01-28T03:57:54.179Z,95.20
2019-01-28T04:00:41.803Z,95.20
2019-01-28T04:03:29.738Z,95.00
2019-01-28T04:06:17.703Z,94.90
2019-01-28T04:09:08.862Z,95.00
2019-01-28T04:11:56.833Z,94.80
2019-01-28T04:14:45.090Z,94.80
2019-01-28T04:17:33.066Z,94.90
2019-01-28T04:20:22.179Z,95.10
2019-01-28T04:23:10.272Z,94.90
2019-01-28T04:25:58.061Z,94.60
2019-01-28T04:28:46.458Z,94.60
2019-01-28T04:31:34.203Z,95.00
2019-01-28T04:34:22.329Z,94.80
2019-01-28T04:37:10.528Z,94.70
2019-01-28T04:39:58.915Z,94.40
2019-01-28T04:42:47.127Z,94.30
2019-01-28T04:45:34.854Z,93.80
2019-01-28T04:48:22.659Z,93.70
2019-01-28T04:51:11.592Z,93.60
2019-01-28T04:53:59.495Z,93.20
2019-01-28T04:56:46.900Z,92.80
2019-01-28T04:59:34.870Z,93.20
2019-01-28T05:02:22.911Z,92.60
2019-01-28T05:05:11.006Z,92.60
2019-01-28T05:07:59.129Z,92.30
2019-01-28T05:10:47.210Z,92.50
2019-01-28T05:13:34.943Z,92.20
2019-01-28T05:16:22.587Z,92.00
2019-01-28T05:19:09.834Z,91.70
2019-01-28T05:21:57.708Z,91.60
2019-01-28T05:24:45.890Z,91.60
2019-01-28T05:27:33.676Z,91.80
2019-01-28T05:30:23.250Z,91.90
2019-01-28T05:33:11.392Z,91.60
2019-01-28T05:35:59.424Z,91.60
2019-01-28T05:38:47.039Z,91.70
2019-01-28T05:41:34.917Z,91.60
2019-01-28T05:44:23.276Z,91.50
2019-01-28T05:47:11.288Z,91.60
2019-01-28T05:49:59.302Z,91.60
2019-01-28T05:52:47.122Z,91.60
2019-01-28T05:55:34.666Z,91.30
2019-01-28T05:58:22.652Z,91.80
2019-01-28T06:01:10.898Z,91.40
2019-01-28T06:03:58.789Z,91.30
2019-01-28T06:06:46.733Z,91.20
2019-01-28T06:09:34.791Z,91.30
2019-01-28T06:12:22.759Z,91.40
2019-01-28T06:15:12.540Z,91.20
2019-01-28T06:18:00.333Z,90.80
2019-01-28T06:20:47.916Z,90.50
2019-01-28T06:23:36.384Z,90.70
2019-01-28T06:26:24.179Z,91.00
2019-01-28T06:29:12.330Z,90.50
2019-01-28T06:32:04.675Z,90.80
2019-01-28T06:34:52.840Z,90.60
2019-01-28T06:37:41.141Z,90.20
2019-01-28T06:40:31.889Z,90.30
2019-01-28T06:43:20.014Z,90.30
2019-01-28T06:46:07.762Z,90.20
2019-01-28T06:48:55.549Z,90.40
2019-01-28T06:51:44.036Z,90.60
2019-01-28T06:54:31.892Z,90.40
2019-01-28T06:57:19.933Z,90.60
2019-01-28T07:00:12.486Z,90.70
2019-01-28T07:03:00.839Z,90.40
2019-01-28T07:05:48.824Z,90.90
2019-01-28T07:08:36.745Z,91.00
2019-01-28T07:11:25.796Z,90.90
2019-01-28T07:14:13.727Z,90.70
2019-01-28T07:17:01.507Z,90.50
2019-01-28T07:19:49.772Z,91.00
2019-01-28T07:22:37.228Z,91.10
2019-01-28T07:25:24.811Z,90.90
2019-01-28T07:28:12.979Z,91.00
2019-01-28T07:31:00.868Z,90.90
2019-01-28T07:33:49.294Z,90.70
2019-01-28T07:36:37.402Z,90.90
2019-01-28T07:39:25.377Z,90.60
2019-01-28T07:42:13.901Z,90.80
2019-01-28T07:45:01.662Z,90.70
2019-01-28T07:47:49.693Z,90.70
2019-01-28T07:50:37.338Z,90.40
2019-01-28T07:53:25.233Z,90.50
2019-01-28T07:56:12.691Z,90.40
2019-01-28T07:59:00.588Z,90.40
2019-01-28T08:01:48.226Z,90.40
2019-01-28T08:04:36.333Z,89.80
2019-01-28T08:07:23.999Z,90.00
2019-01-28T08:10:13.247Z,90.10
2019-01-28T08:13:01.022Z,90.10
2019-01-28T08:15:49.220Z,89.40
2019-01-28T08:18:36.974Z,89.30
2019-01-28T08:21:24.641Z,89.00
2019-01-28T08:24:12.497Z,89.20
2019-01-28T08:27:00.686Z,89.10
2019-01-28T08:29:48.168Z,89.30
2019-01-28T08:32:35.994Z,88.30
2019-01-28T08:35:24.416Z,87.50
2019-01-28T08:38:12.652Z,87.80
2019-01-28T08:41:00.610Z,87.60
2019-01-28T08:43:48.277Z,86.70
2019-01-28T08:46:36.278Z,87.50
2019-01-28T08:49:23.959Z,86.00
2019-01-28T08:52:12.173Z,86.20
2019-01-28T08:55:00.233Z,86.60
2019-01-28T08:57:48.094Z,85.20
2019-01-28T09:00:38.429Z,85.00
2019-01-28T09:03:26.450Z,85.20
2019-01-28T09:06:14.266Z,84.70
2019-01-28T09:09:02.218Z,85.10
2019-01-28T09:11:50.530Z,85.10
2019-01-28T09:14:38.698Z,84.60
2019-01-28T09:17:28.919Z,84.70
2019-01-28T09:20:18.630Z,84.60
2019-01-28T09:23:06.794Z,83.90
2019-01-28T09:25:57.807Z,84.80
2019-01-28T09:28:45.609Z,85.10
2019-01-28T09:31:34.888Z,84.80
2019-01-28T09:34:27.548Z,84.70
2019-01-28T09:37:20.503Z,85.30
2019-01-28T09:40:09.862Z,84.80
2019-01-28T09:42:57.739Z,85.10
2019-01-28T09:45:45.755Z,84.60
2019-01-28T09:48:34.375Z,84.70
2019-01-28T09:51:22.975Z,84.70
2019-01-28T09:54:11.163Z,84.90
2019-01-28T09:56:58.734Z,84.20
2019-01-28T09:59:46.549Z,83.60
2019-01-28T10:02:34.521Z,84.40
2019-01-28T10:05:22.609Z,85.20
2019-01-28T10:08:10.582Z,83.60
2019-01-28T10:10:58.808Z,83.70
2019-01-28T10:13:46.739Z,82.50
2019-01-28T10:16:34.614Z,82.40
2019-01-28T10:19:22.071Z,82.90
2019-01-28T10:22:09.873Z,82.80
2019-01-28T10:24:58.041Z,82.60
2019-01-28T10:27:46.998Z,81.40
2019-01-28T10:30:37.331Z,81.20
2019-01-28T10:33:24.788Z,82.10
2019-01-28T10:36:12.855Z,81.60
2019-01-28T10:39:01.180Z,80.90
2019-01-28T10:41:49.132Z,80.80
2019-01-28T10:44:37.337Z,81.40
2019-01-28T10:47:24.757Z,80.60
2019-01-28T10:50:13.507Z,79.90
2019-01-28T10:53:01.089Z,79.80
2019-01-28T10:55:48.845Z,79.30
2019-01-28T10:58:36.947Z,79.10
2019-01-28T11:01:24.738Z,78.60
2019-01-28T11:04:12.495Z,78.10
2019-01-28T11:07:00.086Z,77.60
2019-01-28T11:09:48.149Z,77.50
2019-01-28T11:12:35.911Z,77.70
2019-01-28T11:15:25.961Z,77.20
2019-01-28T11:18:23.282Z,76.60
2019-01-28T11:21:11.522Z,77.00
2019-01-28T11:23:59.777Z,76.90
2019-01-28T11:26:48.016Z,75.70
2019-01-28T11:29:36.254Z,76.60
2019-01-28T11:32:24.287Z,75.20
2019-01-28T11:35:12.081Z,75.10
2019-01-28T11:38:00.270Z,75.50
2019-01-28T11:40:48.439Z,74.70
2019-01-28T11:43:36.088Z,74.10
2019-01-28T11:46:24.440Z,74.40
2019-01-28T11:49:12.906Z,75.40
2019-01-28T11:52:00.853Z,75.20
2019-01-28T11:54:49.052Z,74.70
2019-01-28T11:57:36.916Z,74.30
2019-01-28T12:00:50.563Z,75.80
2019-01-28T12:03:38.865Z,75.10
2019-01-28T12:06:26.975Z,73.60
2019-01-28T12:09:15.228Z,74.00
2019-01-28T12:12:03.145Z,74.10
2019-01-28T12:14:53.483Z,74.20
2019-01-28T12:17:40.739Z,73.70
2019-01-28T12:20:28.572Z,73.70
2019-01-28T12:23:16.662Z,74.00
2019-01-28T12:26:04.320Z,74.60
2019-01-28T12:28:52.182Z,73.60
2019-01-28T12:31:39.893Z,74.10
2019-01-28T12:34:27.937Z,73.50
2019-01-28T12:37:15.773Z,74.00
2019-01-28T12:40:04.654Z,73.90
2019-01-28T12:42:52.685Z,74.80
2019-01-28T12:45:40.845Z,75.80
2019-01-28T12:48:28.878Z,74.30
2019-01-28T12:51:17.044Z,73.30
2019-01-28T12:54:04.984Z,72.70
2019-01-28T12:56:53.304Z,73.70
2019-01-28T12:59:41.578Z,72.00
2019-01-28T13:02:29.785Z,72.90
2019-01-28T13:05:18.841Z,72.60
2019-01-28T13:08:07.812Z,72.40
2019-01-28T13:10:55.558Z,71.30
2019-01-28T13:13:43.440Z,72.20
2019-01-28T13:16:30.990Z,72.70
2019-01-28T13:19:18.788Z,72.80
2019-01-28T13:22:06.850Z,72.90
2019-01-28T13:24:55.636Z,71.40
2019-01-28T13:27:43.671Z,70.70
2019-01-28T13:30:37.175Z,69.30
2019-01-28T13:33:24.897Z,69.90
2019-01-28T13:36:12.906Z,69.50
2019-01-28T13:39:01.277Z,70.30
2019-01-28T13:41:49.293Z,71.00
2019-01-28T13:44:37.386Z,72.00
2019-01-28T13:47:25.480Z,70.10
2019-01-28T13:50:16.039Z,71.00
2019-01-28T13:53:04.323Z,71.30
2019-01-28T13:55:52.424Z,70.90
2019-01-28T13:58:40.287Z,71.60
2019-01-28T14:01:27.963Z,69.90
2019-01-28T14:04:16.451Z,70.80
2019-01-28T14:07:04.977Z,71.20
2019-01-28T14:09:53.061Z,71.10
2019-01-28T14:12:41.396Z,71.10
2019-01-28T14:15:31.235Z,70.70
2019-01-28T14:18:19.258Z,71.00
2019-01-28T14:21:07.644Z,70.90
2019-01-28T14:23:55.573Z,71.60
2019-01-28T14:26:42.932Z,70.20
2019-01-28T14:29:31.129Z,70.50
2019-01-28T14:32:19.222Z,70.70
2019-01-28T14:35:07.222Z,70.40
2019-01-28T14:37:55.268Z,71.10
2019-01-28T14:40:45.145Z,71.30
2019-01-28T14:43:33.228Z,70.80
2019-01-28T14:46:21.156Z,71.20
2019-01-28T14:49:09.449Z,71.20
2019-01-28T14:51:57.814Z,71.50
2019-01-28T14:54:46.970Z,71.90
2019-01-28T14:57:34.904Z,72.20
2019-01-28T15:00:31.326Z,71.50
2019-01-28T15:03:19.167Z,71.10
2019-01-28T15:06:08.260Z,72.40
2019-01-28T15:08:56.159Z,70.20
2019-01-28T15:11:44.323Z,71.50
2019-01-28T15:14:32.546Z,72.40
2019-01-28T15:17:20.654Z,72.50
2019-01-28T15:20:08.982Z,71.70
2019-01-28T15:22:56.929Z,71.50
2019-01-28T15:25:44.855Z,72.00
2019-01-28T15:28:32.718Z,72.40
2019-01-28T15:31:20.761Z,73.10
2019-01-28T15:34:08.666Z,73.60
2019-01-28T15:36:56.606Z,73.50
2019-01-28T15:39:44.421Z,72.80
2019-01-28T15:42:32.359Z,73.10
2019-01-28T15:45:25.661Z,73.10
2019-01-28T15:48:13.435Z,73.00
2019-01-28T15:51:01.203Z,73.00
2019-01-28T15:53:49.073Z,73.90
2019-01-28T15:56:37.117Z,74.10
2019-01-28T15:59:25.079Z,73.90
2019-01-28T16:02:12.982Z,74.20
2019-01-28T16:05:00.255Z,74.40
2019-01-28T16:07:48.288Z,74.50
2019-01-28T16:10:35.978Z,75.00
2019-01-28T16:13:23.986Z,75.80
2019-01-28T16:16:12.213Z,74.80
2019-01-28T16:19:00.013Z,74.70
2019-01-28T16:21:47.912Z,76.00
2019-01-28T16:24:36.188Z,75.00
2019-01-28T16:27:24.867Z,74.60
2019-01-28T16:30:15.984Z,74.90
2019-01-28T16:33:03.869Z,74.50
2019-01-28T16:35:52.025Z,74.40
2019-01-28T16:38:39.698Z,73.70
2019-01-28T16:41:27.926Z,73.60
2019-01-28T16:44:15.853Z,74.50
2019-01-28T16:47:04.821Z,74.00
2019-01-28T16:49:53.181Z,74.50
2019-01-28T16:52:40.925Z,75.00
2019-01-28T16:55:28.912Z,73.90
2019-01-28T16:58:16.682Z,74.10
2019-01-28T17:01:04.549Z,74.70
2019-01-28T17:03:52.401Z,74.90
2019-01-28T17:06:40.107Z,75.10
2019-01-28T17:09:27.772Z,75.10
2019-01-28T17:12:16.492Z,75.20
2019-01-28T17:15:05.887Z,75.90
2019-01-28T17:17:53.596Z,75.30
2019-01-28T17:20:41.174Z,76.10
2019-01-28T17:23:29.087Z,76.20
2019-01-28T17:26:16.677Z,75.40
2019-01-28T17:29:04.408Z,75.90
2019-01-28T17:31:52.064Z,76.50
2019-01-28T17:34:39.891Z,75.70
2019-01-28T17:37:27.863Z,76.60
2019-01-28T17:40:16.113Z,76.70
2019-01-28T17:43:04.170Z,77.30
2019-01-28T17:45:52.238Z,76.30
2019-01-28T17:48:40.063Z,77.80
2019-01-28T17:51:28.034Z,77.60
2019-01-28T17:54:15.796Z,77.20
2019-01-28T17:57:03.987Z,77.90
2019-01-28T17:59:51.578Z,78.90
2019-01-28T18:02:39.449Z,78.90
2019-01-28T18:05:27.257Z,78.40
2019-01-28T18:08:15.250Z,79.10
2019-01-28T18:11:03.247Z,79.20
2019-01-28T18:13:50.995Z,79.90
2019-01-28T18:16:38.916Z,80.10
2019-01-28T18:19:27.230Z,80.30
2019-01-28T18:22:15.012Z,80.80
2019-01-28T18:25:03.006Z,81.30
2019-01-28T18:27:50.832Z,81.60
2019-01-28T18:30:44.261Z,82.00
2019-01-28T18:33:32.580Z,83.00
2019-01-28T18:36:20.117Z,83.00
2019-01-28T18:39:10.979Z,83.70
2019-01-28T18:41:58.636Z,83.60
2019-01-28T18:44:47.271Z,84.40
2019-01-28T18:47:35.610Z,84.50
2019-01-28T18:50:23.949Z,84.40
2019-01-28T18:53:11.781Z,84.60
2019-01-28T18:55:59.603Z,85.20
2019-01-28T18:58:48.004Z,85.70
2019-01-28T19:01:35.839Z,86.00
2019-01-28T19:04:24.084Z,86.50
2019-01-28T19:07:27.553Z,86.30
2019-01-28T19:10:47.647Z,87.40
2019-01-28T19:14:02.203Z,87.80
2019-01-28T19:17:08.524Z,88.10
2019-01-28T19:20:14.360Z,89.30
2019-01-28T19:23:02.312Z,90.30
2019-01-28T19:25:54.298Z,90.90
2019-01-28T19:28:42.655Z,91.90
2019-01-28T19:31:30.424Z,92.50
2019-01-28T19:34:18.593Z,92.50
2019-01-28T19:37:06.168Z,92.50
2019-01-28T19:39:54.499Z,92.40
2019-01-28T19:42:42.108Z,92.30
2019-01-28T19:45:29.575Z,92.00
2019-01-28T19:48:17.182Z,91.60
2019-01-28T19:51:06.752Z,91.50
2019-01-28T19:53:55.047Z,91.80
2019-01-28T19:56:44.154Z,92.00
2019-01-28T19:59:31.843Z,92.20
2019-01-28T20:02:19.765Z,92.60
2019-01-28T20:05:09.220Z,92.50
2019-01-28T20:07:56.835Z,92.70
2019-01-28T20:10:44.759Z,92.70
2019-01-28T20:13:32.720Z,92.90
2019-01-28T20:16:20.415Z,93.00
2019-01-28T20:19:08.627Z,93.30
2019-01-28T20:21:56.544Z,93.60
2019-01-28T20:24:44.374Z,93.90
2019-01-28T20:27:31.970Z,94.20
2019-01-28T20:30:22.343Z,94.80
2019-01-28T20:33:11.342Z,94.90
2019-01-28T20:35:58.972Z,95.20
2019-01-28T20:38:46.700Z,95.60
2019-01-28T20:41:34.690Z,96.00
2019-01-28T20:44:22.491Z,96.20
2019-01-28T20:47:10.348Z,96.50
2019-01-28T20:49:58.525Z,96.50
2019-01-28T20:52:46.162Z,96.50
2019-01-28T20:55:33.490Z,96.80
2019-01-28T20:58:21.450Z,96.80
2019-01-28T21:01:09.191Z,97.00
2019-01-28T21:03:56.975Z,97.10
2019-01-28T21:06:45.652Z,97.30
2019-01-28T21:09:33.656Z,97.30
2019-01-28T21:12:22.290Z,97.40
2019-01-28T21:15:12.477Z,97.30
2019-01-28T21:18:00.214Z,97.40
2019-01-28T21:20:48.292Z,97.60
2019-01-28T21:23:36.276Z,98.10
2019-01-28T21:26:24.631Z,98.50
2019-01-28T21:29:12.812Z,98.60
2019-01-28T21:32:00.962Z,98.80
2019-01-28T21:34:48.821Z,98.90
2019-01-28T21:37:42.382Z,98.90
2019-01-28T21:40:30.070Z,99.00
2019-01-28T21:43:17.933Z,99.00
2019-01-28T21:46:08.420Z,99.10
2019-01-28T21:48:56.681Z,99.00
2019-01-28T21:51:50.429Z,98.90
2019-01-28T21:54:34.424Z,98.60
2019-01-28T21:57:22.421Z,98.40
2019-01-28T22:00:10.586Z,98.60
2019-01-28T22:02:58.736Z,98.70
2019-01-28T22:05:46.680Z,98.80
2019-01-28T22:08:34.527Z,98.90
2019-01-28T22:11:22.233Z,99.00
2019-01-28T22:14:09.792Z,99.10
2019-01-28T22:16:57.654Z,99.20
2019-01-28T22:19:45.411Z,99.70
2019-01-28T22:22:32.911Z,99.70
2019-01-28T22:25:21.138Z,99.80
2019-01-28T22:28:09.457Z,99.90
2019-01-28T22:30:57.334Z,99.90
2019-01-28T22:33:45.910Z,99.90
2019-01-28T22:36:33.944Z,99.90
2019-01-28T22:39:21.691Z,99.90
2019-01-28T22:42:09.720Z,99.90
2019-01-28T22:44:57.484Z,99.90
2019-01-28T22:47:45.994Z,99.90
2019-01-28T22:50:33.758Z,99.90
2019-01-28T22:53:21.472Z,99.90
2019-01-28T22:56:09.602Z,99.90
2019-01-28T22:58:57.102Z,99.90
2019-01-28T23:01:44.888Z,99.90
2019-01-28T23:04:51.982Z,99.90
2019-01-28T23:07:40.108Z,99.90
2019-01-28T23:10:28.209Z,99.90
2019-01-28T23:13:16.418Z,99.90
2019-01-28T23:16:05.036Z,99.90
2019-01-28T23:18:53.751Z,99.90
2019-01-28T23:21:41.691Z,99.90
2019-01-28T23:24:29.961Z,99.90
2019-01-28T23:27:18.062Z,99.90
2019-01-28T23:30:07.811Z,99.90
2019-01-28T23:32:55.361Z,99.90
2019-01-28T23:35:43.260Z,99.90
2019-01-28T23:38:31.105Z,99.90
2019-01-28T23:41:20.890Z,99.80
2019-01-28T23:44:09.276Z,99.70
2019-01-28T23:46:57.371Z,99.80
2019-01-28T23:49:45.139Z,99.40
2019-01-28T23:52:33.288Z,99.40
2019-01-28T23:55:21.318Z,99.20
2019-01-28T23:58:11.115Z,99.10
